Time;durP1;ratioP1;P1;durP2;ratioP2;P2;SDS_P1;SDS_P2;PMS_P1;PMS_P2;Temp;Humidity;BMP_temperature;BMP_pressure;BME280_temperature;BME280_humidity;BME280_pressure;Samples;Min_cycle;Max_cycle;Signal;HPM_P1;HPM_P2
2022/05/21 00:01:10;;;;;;;1.20;0.90;;;;;;;16.45;100.00;100237.25;4941346;28;20218;-71
2022/05/21 00:11:10;;;;;;;0.93;0.60;;;;;;;16.36;100.00;100253.53;4939634;28;20210;-71
2022/05/21 00:13:36;;;;;;;1.43;1.33;;;;;;;16.29;100.00;100263.56;4936430;28;20205;-72
2022/05/21 00:16:05;;;;;;;4.53;1.03;;;;;;;16.17;100.00;100274.78;4941944;28;20937;-72
2022/05/21 00:18:32;;;;;;;1.10;0.77;;;;;;;16.08;100.00;100287.50;4944550;28;20414;-71
2022/05/21 00:20:59;;;;;;;0.83;0.80;;;;;;;15.95;100.00;100304.84;4945509;28;20202;-72
2022/05/21 00:23:28;;;;;;;1.93;1.37;;;;;;;15.82;100.00;100317.81;4940666;28;20723;-71
2022/05/21 00:25:58;;;;;;;1.77;1.53;;;;;;;15.71;100.00;100318.34;4949518;28;20820;-72
2022/05/21 00:28:25;;;;;;;0.77;0.77;;;;;;;15.59;100.00;100321.59;4945012;28;20214;-72
2022/05/21 00:30:52;;;;;;;0.60;0.60;;;;;;;15.55;100.00;100338.47;4950995;28;20217;-72
2022/05/21 00:33:20;;;;;;;2.57;1.23;;;;;;;15.42;100.00;100338.22;4946275;28;20226;-71
2022/05/21 00:35:48;;;;;;;0.70;0.70;;;;;;;15.33;100.00;100350.03;4945914;28;20599;-71
2022/05/21 00:38:15;;;;;;;1.23;0.80;;;;;;;15.15;100.00;100366.72;4947593;28;20687;-71
2022/05/21 00:40:42;;;;;;;1.30;0.73;;;;;;;15.04;100.00;100358.50;4940002;28;20202;-71
2022/05/21 00:43:42;;;;;;;1.80;1.00;;;;;;;14.84;100.00;100370.00;4942782;28;20214;-71
2022/05/21 00:46:12;;;;;;;0.30;0.30;;;;;;;14.61;100.00;100382.44;4947677;28;20223;-72
2022/05/21 00:48:40;;;;;;;0.50;0.50;;;;;;;14.48;100.00;100379.50;4947131;28;20212;-71
2022/05/21 00:51:11;;;;;;;0.60;0.60;;;;;;;14.28;100.00;100382.16;4930364;28;20686;-72
2022/05/21 00:53:38;;;;;;;0.83;0.80;;;;;;;14.13;100.00;100395.06;4947114;28;20206;-71
2022/05/21 00:56:06;;;;;;;0.40;0.40;;;;;;;14.01;100.00;100399.06;4948146;28;20308;-72
2022/05/21 01:01:18;;;;;;;1.03;0.80;;;;;;;13.81;100.00;100409.59;4948763;28;20205;-72
2022/05/21 01:03:46;;;;;;;1.10;0.60;;;;;;;13.74;100.00;100416.84;4946405;28;20727;-72
2022/05/21 01:06:13;;;;;;;0.30;0.27;;;;;;;13.66;100.00;100411.06;4943944;28;20239;-71
2022/05/21 01:08:40;;;;;;;0.17;0.17;;;;;;;13.59;100.00;100423.56;4950038;28;20202;-72
2022/05/21 01:11:11;;;;;;;0.53;0.40;;;;;;;13.56;100.00;100426.34;4947103;28;20755;-73
2022/05/21 01:13:41;;;;;;;0.57;0.57;;;;;;;13.43;100.00;100436.44;4948546;28;20234;-72
2022/05/21 01:16:09;;;;;;;0.20;0.20;;;;;;;13.31;100.00;100439.56;4943438;28;20191;-72
2022/05/21 01:18:35;;;;;;;0.20;0.20;;;;;;;13.27;100.00;100446.66;4948764;28;20203;-72
2022/05/21 01:21:03;;;;;;;0.27;0.20;;;;;;;13.19;100.00;100440.91;4945069;28;20205;-71
2022/05/21 01:23:32;;;;;;;0.17;0.17;;;;;;;13.12;100.00;100452.53;4947138;28;20226;-72
2022/05/21 01:26:00;;;;;;;0.20;0.20;;;;;;;13.05;100.00;100451.91;4949865;28;20278;-72
2022/05/21 01:28:31;;;;;;;0.40;0.30;;;;;;;13.02;100.00;100462.50;4942890;28;20214;-71
2022/05/21 01:30:59;;;;;;;0.10;0.10;;;;;;;12.98;100.00;100465.28;4946500;28;20683;-72
2022/05/21 01:33:29;;;;;;;0.13;0.13;;;;;;;12.97;100.00;100456.59;4942054;28;20231;-72
2022/05/21 01:35:57;;;;;;;0.30;0.30;;;;;;;12.97;100.00;100464.44;4945118;28;20200;-72
2022/05/21 01:38:25;;;;;;;0.10;0.10;;;;;;;12.93;100.00;100473.31;4931560;28;20194;-72
2022/05/21 01:40:52;;;;;;;0.20;0.17;;;;;;;12.94;100.00;100482.00;4945628;28;20202;-73
2022/05/21 01:46:09;;;;;;;0.20;0.20;;;;;;;12.92;100.00;100489.06;4910078;28;20218;-73
2022/05/21 01:48:36;;;;;;;0.30;0.30;;;;;;;12.88;100.00;100506.66;4946678;28;20202;-72
2022/05/21 01:51:05;;;;;;;0.30;0.30;;;;;;;12.88;100.00;100507.50;4940881;28;20229;-72
2022/05/21 01:53:31;;;;;;;0.27;0.27;;;;;;;12.85;100.00;100501.53;4938597;28;20216;-72
2022/05/21 01:55:59;;;;;;;0.30;0.30;;;;;;;12.86;100.00;100511.09;4942930;28;20207;-72
2022/05/21 01:58:28;;;;;;;0.10;0.10;;;;;;;12.91;100.00;100519.63;4946699;28;20568;-71
2022/05/21 02:00:55;;;;;;;0.10;0.10;;;;;;;12.93;100.00;100538.75;4945069;28;20210;-71
2022/05/21 02:03:22;;;;;;;0.13;0.13;;;;;;;12.93;100.00;100525.66;4945062;28;20307;-71
2022/05/21 02:05:48;;;;;;;0.30;0.13;;;;;;;12.97;100.00;100542.09;4946032;28;20201;-72
2022/05/21 02:08:17;;;;;;;0.23;0.23;;;;;;;12.96;100.00;100543.00;4949992;28;20212;-73
2022/05/21 02:10:45;;;;;;;0.37;0.37;;;;;;;12.95;100.00;100536.06;4933116;28;20201;-72
2022/05/21 02:13:16;;;;;;;0.10;0.10;;;;;;;12.95;100.00;100536.91;4944660;28;20237;-72
2022/05/21 02:15:43;;;;;;;0.27;0.27;;;;;;;12.95;100.00;100536.91;4946092;28;20223;-73
2022/05/21 02:18:10;;;;;;;0.30;0.30;;;;;;;12.92;100.00;100529.16;4943426;28;20211;-73
2022/05/21 02:20:36;;;;;;;1.17;0.60;;;;;;;12.90;100.00;100548.47;4945026;28;20212;-73
2022/05/21 02:23:02;;;;;;;0.50;0.50;;;;;;;12.85;100.00;100546.84;4946419;28;20220;-73
2022/05/21 02:25:29;;;;;;;0.20;0.20;;;;;;;12.78;100.00;100550.59;4939047;28;20210;-72
2022/05/21 02:27:55;;;;;;;0.30;0.30;;;;;;;12.77;100.00;100555.91;4940395;28;20234;-72
2022/05/21 02:30:23;;;;;;;0.50;0.50;;;;;;;12.77;100.00;100558.50;4946047;28;20203;-72
2022/05/21 02:32:49;;;;;;;0.20;0.20;;;;;;;12.81;100.00;100562.75;4940038;28;20591;-73
2022/05/21 02:35:16;;;;;;;0.30;0.30;;;;;;;12.78;100.00;100563.69;4941517;28;20210;-73
2022/05/21 02:40:26;;;;;;;0.10;0.10;;;;;;;12.83;100.00;100568.75;4940037;28;20210;-70
2022/05/21 02:42:54;;;;;;;0.37;0.30;;;;;;;12.81;100.00;100570.59;4943002;28;20228;-73
2022/05/21 02:45:24;;;;;;;0.10;0.10;;;;;;;12.83;100.00;100571.38;4946777;28;20213;-71
2022/05/21 02:47:51;;;;;;;0.20;0.20;;;;;;;12.83;100.00;100589.69;4948159;28;20687;-73
2022/05/21 02:50:22;;;;;;;0.40;0.40;;;;;;;12.84;100.00;100581.78;4939559;28;20210;-73
2022/05/21 02:52:48;;;;;;;0.30;0.30;;;;;;;12.78;100.00;100591.63;4942406;28;20222;-72
2022/05/21 02:55:15;;;;;;;0.20;0.20;;;;;;;12.81;100.00;100597.59;4941403;28;20211;-72
2022/05/21 02:57:43;;;;;;;0.10;0.10;;;;;;;12.78;100.00;100597.69;4947810;28;20199;-73
2022/05/21 03:00:13;;;;;;;0.10;0.10;;;;;;;12.73;100.00;100602.25;4934565;28;20585;-74
2022/05/21 03:02:40;;;;;;;0.10;0.10;;;;;;;12.68;100.00;100606.78;4937344;28;20656;-71
2022/05/21 03:05:08;;;;;;;0.50;0.30;;;;;;;12.66;100.00;100622.56;4939608;28;20229;-73
2022/05/21 03:07:37;;;;;;;0.53;0.53;;;;;;;12.66;100.00;100621.69;4945061;28;20231;-73
2022/05/21 03:10:21;;;;;;;0.30;0.30;;;;;;;12.65;100.00;100609.53;4938083;28;20204;-71
2022/05/21 03:12:48;;;;;;;0.20;0.20;;;;;;;12.65;100.00;100628.69;4939425;28;20355;-73
2022/05/21 03:15:16;;;;;;;0.67;0.43;;;;;;;12.67;100.00;100624.25;4943415;28;20266;-73
2022/05/21 03:17:46;;;;;;;0.20;0.20;;;;;;;12.68;100.00;100623.34;4942992;28;20252;-73
2022/05/21 03:20:14;;;;;;;0.30;0.27;;;;;;;12.67;100.00;100628.63;4945323;28;20245;-72
2022/05/21 03:22:40;;;;;;;0.30;0.30;;;;;;;12.69;100.00;100634.66;4943821;28;20721;-70
2022/05/21 03:25:08;;;;;;;0.07;0.07;;;;;;;12.72;100.00;100649.38;4936391;28;20204;-72
2022/05/21 03:27:35;;;;;;;0.30;0.30;;;;;;;12.71;100.00;100645.91;4941087;28;20686;-72
2022/05/21 03:30:01;;;;;;;0.73;0.43;;;;;;;12.68;100.00;100643.41;4935794;28;20239;-72
2022/05/21 03:32:28;;;;;;;0.30;0.30;;;;;;;12.66;100.00;100655.69;4941804;28;20225;-73
2022/05/21 03:34:56;;;;;;;0.17;0.17;;;;;;;12.66;100.00;100651.31;4945411;28;20784;-73
2022/05/21 03:37:22;;;;;;;0.60;0.50;;;;;;;12.65;100.00;100660.06;4943869;28;20206;-73
2022/05/21 03:39:48;;;;;;;0.27;0.27;;;;;;;12.66;100.00;100658.28;4941016;28;20216;-73
2022/05/21 03:42:15;;;;;;;0.30;0.30;;;;;;;12.64;100.00;100658.34;4947652;28;20224;-73
2022/05/21 03:44:41;;;;;;;0.40;0.40;;;;;;;12.58;100.00;100660.34;4938873;28;20207;-72
2022/05/21 03:47:08;;;;;;;0.50;0.50;;;;;;;12.58;100.00;100666.41;4937558;28;20224;-72
2022/05/21 03:49:34;;;;;;;0.17;0.17;;;;;;;12.57;100.00;100667.31;4943999;28;20271;-73
2022/05/21 03:52:02;;;;;;;0.60;0.60;;;;;;;12.61;100.00;100684.63;4947280;28;20632;-70
2022/05/21 03:54:29;;;;;;;0.20;0.20;;;;;;;12.61;100.00;100687.25;4948244;28;20204;-73
2022/05/21 03:57:11;;;;;;;0.77;0.40;;;;;;;12.64;100.00;100683.66;4952669;28;20203;-73
2022/05/21 03:59:38;;;;;;;0.93;0.40;;;;;;;12.65;100.00;100688.84;4941396;28;20221;-73
2022/05/21 04:02:06;;;;;;;0.30;0.30;;;;;;;12.70;100.00;100688.69;4963200;23;20240;-76
2022/05/21 04:04:33;;;;;;;0.40;0.40;;;;;;;12.67;100.00;100705.34;4951171;29;20287;-76
2022/05/21 04:07:00;;;;;;;0.50;0.40;;;;;;;12.70;100.00;100707.00;4951733;29;20306;-76
2022/05/21 04:09:28;;;;;;;0.30;0.30;;;;;;;12.70;100.00;100712.25;4933472;29;20688;-76
2022/05/21 04:11:55;;;;;;;0.53;0.30;;;;;;;12.73;100.00;100717.34;4944711;29;20543;-76
2022/05/21 04:14:27;;;;;;;0.30;0.30;;;;;;;12.72;100.00;100705.19;4951235;29;20589;-76
2022/05/21 04:16:55;;;;;;;0.47;0.47;;;;;;;12.73;100.00;100721.72;4950761;28;20632;-76
2022/05/21 04:19:21;;;;;;;0.10;0.10;;;;;;;12.79;100.00;100724.16;4951058;29;20619;-75
2022/05/21 04:21:48;;;;;;;0.83;0.67;;;;;;;12.78;100.00;100725.91;4951032;29;20209;-76
2022/05/21 04:24:14;;;;;;;0.30;0.30;;;;;;;12.80;100.00;100731.09;4950390;29;20293;-76
2022/05/21 04:26:42;;;;;;;0.20;0.20;;;;;;;12.77;100.00;100720.72;4944973;29;20258;-75
2022/05/21 04:29:09;;;;;;;0.63;0.50;;;;;;;12.74;100.00;100732.16;4941367;29;20672;-76
2022/05/21 04:31:36;;;;;;;0.30;0.30;;;;;;;12.76;100.00;100750.41;4947730;28;20208;-76
2022/05/21 04:34:03;;;;;;;0.30;0.30;;;;;;;12.73;100.00;100756.59;4943297;29;20219;-76
2022/05/21 04:36:30;;;;;;;0.87;0.27;;;;;;;12.73;100.00;100750.50;4951841;29;20196;-75
2022/05/21 04:38:57;;;;;;;0.83;0.40;;;;;;;12.75;100.00;100762.66;4950587;29;20285;-75
2022/05/21 04:41:25;;;;;;;0.73;0.73;;;;;;;12.77;100.00;100765.19;4950817;29;20211;-75
2022/05/21 04:43:53;;;;;;;0.50;0.50;;;;;;;12.80;100.00;100765.94;4950268;29;20250;-75
2022/05/21 04:46:20;;;;;;;0.87;0.50;;;;;;;12.85;100.00;100771.88;4933450;29;20208;-75
2022/05/21 04:48:48;;;;;;;0.30;0.30;;;;;;;12.85;100.00;100768.41;4949425;29;20234;-75
2022/05/21 04:51:16;;;;;;;0.90;0.67;;;;;;;12.79;100.00;100782.56;4951379;29;20703;-75
2022/05/21 04:53:43;;;;;;;0.20;0.20;;;;;;;12.78;100.00;100793.91;4933132;29;20329;-76
2022/05/21 04:56:09;;;;;;;0.40;0.40;;;;;;;12.74;100.00;100781.84;4950197;29;20661;-76
2022/05/21 04:58:36;;;;;;;0.10;0.10;;;;;;;12.75;100.00;100791.44;4934518;29;20221;-76
2022/05/21 05:01:05;;;;;;;0.30;0.30;;;;;;;12.82;100.00;100785.09;4949653;29;20232;-76
2022/05/21 05:03:32;;;;;;;0.37;0.37;;;;;;;12.89;100.00;100790.94;4948534;28;20264;-75
2022/05/21 05:05:59;;;;;;;0.20;0.20;;;;;;;12.88;100.00;100807.56;4951609;29;20235;-76
2022/05/21 05:08:26;;;;;;;0.63;0.40;;;;;;;12.87;100.00;100798.88;4944469;29;20215;-76
2022/05/21 05:10:53;;;;;;;0.10;0.10;;;;;;;12.88;100.00;100791.88;4941593;29;20207;-76
2022/05/21 05:13:20;;;;;;;0.40;0.40;;;;;;;12.88;100.00;100803.19;4951611;28;20566;-76
2022/05/21 05:15:47;;;;;;;0.40;0.40;;;;;;;12.89;100.00;100809.25;4930876;29;20216;-76
2022/05/21 05:18:17;;;;;;;0.30;0.30;;;;;;;12.87;100.00;100809.34;4932593;29;20208;-76
2022/05/21 05:20:44;;;;;;;0.30;0.20;;;;;;;12.84;100.00;100806.81;4951740;29;20205;-75
2022/05/21 05:23:11;;;;;;;0.20;0.20;;;;;;;12.84;100.00;100804.19;4951717;29;20218;-75
2022/05/21 05:25:39;;;;;;;0.40;0.40;;;;;;;12.79;100.00;100805.25;4951432;29;20289;-75
2022/05/21 05:28:13;;;;;;;0.53;0.47;;;;;;;12.76;100.00;100811.44;4933995;29;20226;-75
2022/05/21 05:30:40;;;;;;;1.40;0.63;;;;;;;12.79;100.00;100813.13;4927297;29;20973;-75
2022/05/21 05:33:06;;;;;;;0.30;0.30;;;;;;;12.78;100.00;100816.63;4951553;29;20312;-76
2022/05/21 05:35:34;;;;;;;0.73;0.30;;;;;;;12.76;100.00;100823.66;4943746;29;20231;-76
2022/05/21 05:38:05;;;;;;;0.37;0.27;;;;;;;12.79;100.00;100819.19;4951276;29;20596;-75
2022/05/21 05:40:32;;;;;;;0.20;0.20;;;;;;;12.84;100.00;100821.63;4951240;29;20232;-76
2022/05/21 05:42:59;;;;;;;0.43;0.43;;;;;;;13.15;100.00;100826.72;4933133;29;20853;-76
2022/05/21 05:45:25;;;;;;;0.97;0.30;;;;;;;13.22;100.00;100835.22;4950266;29;20202;-75
2022/05/21 05:47:52;;;;;;;0.30;0.30;;;;;;;13.21;100.00;100833.53;4951274;29;20500;-76
2022/05/21 05:50:18;;;;;;;0.57;0.50;;;;;;;13.31;100.00;100847.16;4950566;29;20235;-76
2022/05/21 05:52:46;;;;;;;0.30;0.23;;;;;;;13.35;100.00;100835.69;4950938;29;20297;-76
2022/05/21 05:55:13;;;;;;;0.20;0.20;;;;;;;13.27;100.00;100847.25;4950777;29;20272;-76
2022/05/21 05:57:40;;;;;;;0.33;0.33;;;;;;;13.15;100.00;100850.28;4951598;29;20199;-76
2022/05/21 06:00:07;;;;;;;0.30;0.30;;;;;;;13.22;100.00;100843.09;4950484;29;20283;-76
2022/05/21 06:05:23;;;;;;;0.20;0.20;;;;;;;13.53;100.00;100842.09;4943168;29;20571;-76
2022/05/21 06:07:54;;;;;;;0.27;0.27;;;;;;;13.67;100.00;100852.94;4950827;29;20213;-76
2022/05/21 06:10:24;;;;;;;0.50;0.50;;;;;;;13.71;100.00;100844.03;4950920;29;20393;-76
2022/05/21 06:12:50;;;;;;;0.17;0.13;;;;;;;13.83;100.00;100861.94;4946260;29;20232;-76
2022/05/21 06:15:17;;;;;;;0.27;0.23;;;;;;;13.87;100.00;100859.22;4949361;28;20233;-76
2022/05/21 06:17:44;;;;;;;0.10;0.10;;;;;;;13.84;100.00;100862.78;4950289;29;20209;-76
2022/05/21 06:20:14;;;;;;;0.73;0.20;;;;;;;13.80;100.00;100869.91;4948256;29;20206;-77
2022/05/21 06:22:42;;;;;;;0.20;0.20;;;;;;;13.78;100.00;100876.13;4950682;29;20717;-75
2022/05/21 06:25:11;;;;;;;0.50;0.20;;;;;;;13.71;100.00;100882.50;4950019;29;20241;-75
2022/05/21 06:27:38;;;;;;;0.27;0.27;;;;;;;13.58;100.00;100889.94;4950598;29;20199;-75
2022/05/21 06:30:06;;;;;;;0.33;0.33;;;;;;;13.65;100.00;100880.97;4951729;28;20199;-75
2022/05/21 06:32:32;;;;;;;0.50;0.40;;;;;;;13.79;99.78;100881.31;4950476;29;20222;-75
2022/05/21 06:34:59;;;;;;;0.60;0.60;;;;;;;13.68;98.63;100890.47;4950190;29;20666;-75
2022/05/21 06:37:25;;;;;;;0.20;0.20;;;;;;;13.66;100.00;100895.75;4950232;29;20285;-75
2022/05/21 06:39:51;;;;;;;0.33;0.33;;;;;;;13.49;98.63;100888.47;4949596;29;20234;-75
2022/05/21 06:42:19;;;;;;;0.03;0.03;;;;;;;13.51;98.89;100893.66;4950313;29;20673;-75
2022/05/21 06:44:46;;;;;;;0.30;0.30;;;;;;;13.48;97.97;100892.00;4950163;28;20275;-75
2022/05/21 06:47:12;;;;;;;0.20;0.20;;;;;;;13.55;97.54;100887.41;4932110;29;20213;-75
2022/05/21 06:49:38;;;;;;;0.37;0.30;;;;;;;13.55;97.40;100897.88;4932623;29;20218;-75
2022/05/21 06:52:05;;;;;;;0.20;0.20;;;;;;;13.71;99.18;100890.34;4949728;29;20205;-75
2022/05/21 06:54:32;;;;;;;0.30;0.30;;;;;;;13.84;97.96;100902.09;4949371;29;20210;-75
2022/05/21 06:56:59;;;;;;;0.30;0.30;;;;;;;13.93;96.05;100908.78;4932116;29;20264;-75
2022/05/21 06:59:28;;;;;;;0.10;0.10;;;;;;;13.98;96.54;100896.38;4945887;29;20209;-75
2022/05/21 07:01:54;;;;;;;0.30;0.30;;;;;;;13.94;93.82;100906.13;4940804;29;20195;-75
2022/05/21 07:07:32;;;;;;;0.47;0.40;;;;;;;14.07;93.56;100908.28;4937574;29;20205;-74
2022/05/21 07:09:57;;;;;;;0.10;0.10;;;;;;;14.01;89.60;100925.09;4943311;29;20221;-75
2022/05/21 07:12:25;;;;;;;0.20;0.20;;;;;;;14.09;89.73;100930.94;4932689;29;20230;-75
2022/05/21 07:14:52;;;;;;;0.30;0.30;;;;;;;13.99;91.31;100935.66;4941652;28;20261;-75
2022/05/21 07:17:19;;;;;;;0.10;0.10;;;;;;;13.98;87.71;100938.31;4949936;29;20198;-75
2022/05/21 07:19:46;;;;;;;0.30;0.30;;;;;;;14.02;87.98;100951.28;4932289;29;20695;-75
2022/05/21 07:22:13;;;;;;;0.30;0.30;;;;;;;14.13;88.74;100947.41;4931904;29;20315;-75
2022/05/21 07:24:40;;;;;;;0.40;0.20;;;;;;;14.23;87.07;100950.53;4947625;29;20201;-75
2022/05/21 07:27:07;;;;;;;0.20;0.20;;;;;;;14.19;86.78;100947.19;4942096;28;21026;-75
2022/05/21 07:29:36;;;;;;;0.30;0.30;;;;;;;14.24;86.21;100947.88;4940453;29;20753;-75
2022/05/21 07:32:04;;;;;;;0.10;0.10;;;;;;;14.39;87.42;100949.94;4950247;29;20312;-76
2022/05/21 07:34:30;;;;;;;0.10;0.10;;;;;;;14.52;88.20;100947.72;4947771;29;20206;-75
2022/05/21 07:36:57;;;;;;;0.47;0.47;;;;;;;14.53;87.24;100946.81;4933033;29;20191;-75
2022/05/21 07:39:23;;;;;;;0.10;0.10;;;;;;;14.58;87.62;100947.53;4945388;28;20205;-75
2022/05/21 07:41:50;;;;;;;0.10;0.10;;;;;;;14.73;87.46;100943.44;4952054;28;20587;-75
2022/05/21 07:44:17;;;;;;;0.17;0.13;;;;;;;14.74;89.01;100946.97;4951787;28;20210;-75
2022/05/21 07:46:44;;;;;;;0.30;0.30;;;;;;;14.61;85.17;100958.81;4948964;29;20206;-75
2022/05/21 07:49:12;;;;;;;0.20;0.20;;;;;;;14.59;84.33;100969.38;4951551;29;20249;-76
2022/05/21 07:51:38;;;;;;;0.23;0.23;;;;;;;14.65;84.59;100968.28;4953260;29;20307;-75
2022/05/21 07:54:05;;;;;;;0.40;0.40;;;;;;;14.64;82.43;100963.97;4934403;29;20211;-75
2022/05/21 07:56:33;;;;;;;0.10;0.10;;;;;;;14.63;83.16;100960.44;4934398;29;20671;-75
2022/05/21 07:58:59;;;;;;;0.30;0.30;;;;;;;14.72;83.16;100978.50;4951796;29;20210;-75
2022/05/21 08:01:26;;;;;;;0.20;0.20;;;;;;;14.79;80.80;100968.59;4943336;29;20208;-75
2022/05/21 08:03:52;;;;;;;0.00;0.00;;;;;;;14.97;85.47;100956.56;4953349;29;20259;-76
2022/05/21 08:06:20;;;;;;;0.30;0.30;;;;;;;14.84;81.73;100964.03;4939412;29;20219;-76
2022/05/21 08:08:48;;;;;;;3.73;0.40;;;;;;;15.02;84.47;100961.59;4956699;29;20616;-76
2022/05/21 08:11:14;;;;;;;0.20;0.20;;;;;;;15.15;82.70;100958.44;4964596;28;20199;-76
2022/05/21 08:13:41;;;;;;;0.10;0.10;;;;;;;15.11;83.98;100950.75;4963290;28;20227;-76
2022/05/21 08:16:08;;;;;;;0.00;0.00;;;;;;;15.08;81.91;100953.50;4964249;29;20214;-76
2022/05/21 08:18:34;;;;;;;0.10;0.10;;;;;;;15.26;86.57;100947.50;4959177;29;20260;-76
2022/05/21 08:21:01;;;;;;;0.10;0.10;;;;;;;15.35;83.26;100946.28;4956832;29;20209;-76
2022/05/21 08:28:58;;;;;;;0.20;0.20;;;;;;;15.35;82.19;100948.91;4945328;29;20209;-76
2022/05/21 08:31:24;;;;;;;0.10;0.10;;;;;;;15.19;82.53;100951.28;4952822;28;20208;-76
2022/05/21 08:33:50;;;;;;;0.47;0.30;;;;;;;15.27;82.72;100946.59;4931040;29;20235;-75
2022/05/21 08:36:17;;;;;;;0.17;0.17;;;;;;;15.43;79.36;100948.59;4950678;29;20290;-75
2022/05/21 08:38:45;;;;;;;0.40;0.40;;;;;;;15.59;81.65;100949.66;4951234;28;20454;-75
2022/05/21 08:41:19;;;;;;;0.20;0.20;;;;;;;15.55;80.26;100950.72;4950095;29;20679;-75
2022/05/21 08:43:54;;;;;;;0.30;0.30;;;;;;;15.48;79.45;100951.91;4952173;28;20280;-76
2022/05/21 08:46:35;;;;;;;0.37;0.33;;;;;;;15.67;84.30;100929.19;4951794;28;20226;-76
2022/05/21 08:49:04;;;;;;;1.03;0.43;;;;;;;15.80;79.85;100944.47;4944914;29;20551;-76
2022/05/21 08:51:35;;;;;;;0.43;0.40;;;;;;;15.99;76.74;100948.00;4945796;29;20672;-76
2022/05/21 08:54:05;;;;;;;0.30;0.20;;;;;;;16.17;78.74;100953.38;4935059;29;20219;-76
2022/05/21 08:56:33;;;;;;;0.23;0.23;;;;;;;15.90;76.76;100953.66;4944252;29;20207;-76
2022/05/21 08:59:04;;;;;;;0.20;0.20;;;;;;;16.00;78.02;100943.59;4962646;28;20216;-76
2022/05/21 09:01:34;;;;;;;0.30;0.30;;;;;;;16.29;76.67;100947.56;4948407;29;20214;-76
2022/05/21 09:04:03;;;;;;;0.30;0.30;;;;;;;16.26;80.01;100947.69;4950878;29;20228;-75
2022/05/21 09:06:36;;;;;;;0.30;0.30;;;;;;;16.06;74.96;100954.69;4950736;29;20253;-75
2022/05/21 09:09:10;;;;;;;0.20;0.20;;;;;;;16.07;77.90;100948.50;4951470;29;20271;-76
2022/05/21 09:11:41;;;;;;;0.10;0.10;;;;;;;16.17;76.04;100961.25;4952193;29;20198;-76
2022/05/21 09:14:13;;;;;;;1.07;0.20;;;;;;;16.41;79.24;100947.00;4943292;29;20233;-76
2022/05/21 09:16:58;;;;;;;0.30;0.30;;;;;;;16.72;81.81;100936.84;4941697;29;20290;-76
2022/05/21 09:19:34;;;;;;;0.10;0.10;;;;;;;16.97;78.08;100941.81;4944254;29;20276;-76
2022/05/21 09:22:02;;;;;;;0.40;0.30;;;;;;;16.56;73.08;100940.19;4951489;29;20269;-76
2022/05/21 09:24:44;;;;;;;0.13;0.13;;;;;;;16.50;73.67;100940.47;4951147;29;20280;-76
2022/05/21 09:27:25;;;;;;;0.20;0.20;;;;;;;16.75;75.47;100941.97;4950482;29;20755;-76
2022/05/21 09:29:54;;;;;;;1.03;0.60;;;;;;;16.97;72.38;100945.34;4933699;29;20218;-76
2022/05/21 09:32:23;;;;;;;0.33;0.33;;;;;;;17.20;70.04;100940.72;4945998;28;20222;-76
2022/05/21 09:35:03;;;;;;;0.07;0.07;;;;;;;16.96;72.58;100940.13;4939033;29;20202;-76
2022/05/21 09:37:30;;;;;;;0.30;0.27;;;;;;;16.69;69.71;100939.59;4943779;29;20281;-76
2022/05/21 09:39:58;;;;;;;0.00;0.00;;;;;;;16.72;71.37;100942.09;4944046;29;20912;-76
2022/05/21 09:45:24;;;;;;;0.20;0.13;;;;;;;17.10;71.04;100935.06;4940448;29;20210;-76
2022/05/21 09:47:52;;;;;;;0.10;0.10;;;;;;;17.22;72.36;100926.53;4931835;29;20209;-76
2022/05/21 09:50:23;;;;;;;0.10;0.10;;;;;;;16.96;69.97;100934.88;4948976;28;20202;-76
2022/05/21 09:52:52;;;;;;;0.20;0.20;;;;;;;17.14;71.69;100936.59;4932523;29;20903;-76
2022/05/21 09:55:24;;;;;;;0.40;0.40;;;;;;;17.40;68.88;100927.41;4947783;29;20465;-75
2022/05/21 09:57:52;;;;;;;0.30;0.30;;;;;;;17.40;73.82;100921.28;4949676;29;20203;-76
2022/05/21 10:00:23;;;;;;;0.17;0.17;;;;;;;17.31;69.04;100924.41;4949505;28;20873;-76
2022/05/21 10:02:52;;;;;;;0.20;0.20;;;;;;;17.18;73.69;100917.09;4963072;23;20227;-69
2022/05/21 10:05:23;;;;;;;0.13;0.13;;;;;;;16.97;72.29;100915.47;4970114;28;20249;-73
2022/05/21 10:11:00;;;;;;;0.07;0.07;;;;;;;17.11;73.39;100917.47;4966342;28;20205;-70
2022/05/21 10:13:30;;;;;;;0.40;0.40;;;;;;;17.45;69.47;100924.56;4969115;28;20225;-71
2022/05/21 10:16:11;;;;;;;0.03;0.03;;;;;;;17.58;68.54;100928.25;4969767;28;20974;-70
2022/05/21 10:18:41;;;;;;;0.10;0.10;;;;;;;17.50;67.94;100929.56;4960927;28;20206;-72
2022/05/21 10:21:16;;;;;;;0.10;0.10;;;;;;;17.27;70.06;100934.22;4968692;28;20281;-69
2022/05/21 10:23:50;;;;;;;0.10;0.10;;;;;;;17.09;67.01;100937.75;4969475;28;20222;-70
2022/05/21 10:26:36;;;;;;;0.10;0.10;;;;;;;16.92;65.70;100939.44;4969228;28;20212;-72
2022/05/21 10:29:22;;;;;;;0.20;0.20;;;;;;;16.97;69.25;100929.53;4968805;28;20290;-70
2022/05/21 10:31:57;;;;;;;0.10;0.10;;;;;;;17.25;68.64;100927.31;4964066;28;20198;-69
2022/05/21 10:34:42;;;;;;;0.10;0.10;;;;;;;17.29;68.95;100927.09;4969051;28;20898;-72
2022/05/21 10:37:25;;;;;;;0.10;0.10;;;;;;;17.27;66.33;100936.84;4968942;28;20212;-70
2022/05/21 10:40:09;;;;;;;0.10;0.10;;;;;;;17.01;65.39;100931.06;4968482;28;20304;-72
2022/05/21 10:42:50;;;;;;;0.00;0.00;;;;;;;17.26;67.91;100914.06;4966967;28;20665;-71
2022/05/21 10:45:23;;;;;;;0.17;0.17;;;;;;;17.58;67.62;100917.72;4967506;28;20210;-69
2022/05/21 10:48:09;;;;;;;0.00;0.00;;;;;;;17.57;66.56;100920.44;4967947;28;20619;-69
2022/05/21 10:50:44;;;;;;;0.20;0.20;;;;;;;17.39;66.93;100917.78;4966998;28;20285;-72
2022/05/21 10:53:46;;;;;;;0.10;0.10;;;;;;;17.35;63.92;100928.56;4969191;28;20228;-73
2022/05/21 10:56:30;;;;;;;2.73;0.87;;;;;;;17.56;67.93;100914.31;4956728;28;20316;-73
2022/05/21 10:59:12;;;;;;;0.00;0.00;;;;;;;17.66;66.30;100930.53;4968846;28;20202;-72
2022/05/21 11:01:49;;;;;;;0.40;0.37;;;;;;;17.36;64.05;100927.63;4967828;28;20209;-69
2022/05/21 11:04:34;;;;;;;0.10;0.10;;;;;;;17.32;65.72;100924.28;4966985;28;20237;-70
2022/05/21 11:07:34;;;;;;;0.07;0.07;;;;;;;17.44;66.49;100916.72;4965040;28;20228;-69
2022/05/21 11:10:11;;;;;;;0.10;0.10;;;;;;;17.51;68.14;100910.22;4968202;28;20190;-69
2022/05/21 11:12:51;;;;;;;0.10;0.10;;;;;;;17.58;67.61;100907.16;4967449;28;20703;-69
2022/05/21 11:15:28;;;;;;;0.60;0.30;;;;;;;17.57;66.12;100905.50;4968891;28;20289;-72
2022/05/21 11:18:01;;;;;;;0.07;0.07;;;;;;;17.42;67.28;100912.38;4969128;28;20206;-69
2022/05/21 11:20:32;;;;;;;0.03;0.03;;;;;;;17.41;67.10;100905.41;4968295;28;20229;-70
2022/05/21 11:23:04;;;;;;;0.53;0.53;;;;;;;17.29;65.44;100918.31;4968370;28;20232;-71
2022/05/21 11:25:36;;;;;;;0.03;0.03;;;;;;;17.18;65.67;100919.72;4967798;28;20826;-68
2022/05/21 11:28:14;;;;;;;0.00;0.00;;;;;;;17.08;66.99;100910.56;4958427;28;20198;-70
2022/05/21 11:30:47;;;;;;;0.40;0.20;;;;;;;16.88;66.81;100919.41;4962094;28;20296;-68
2022/05/21 11:38:53;;;;;;;0.23;0.23;;;;;;;16.36;69.01;100927.94;4927282;28;20566;-70
2022/05/21 11:41:28;;;;;;;0.20;0.20;;;;;;;16.31;69.80;100924.66;4967669;28;20240;-71
2022/05/21 11:46:49;;;;;;;0.30;0.30;;;;;;;16.34;69.39;100915.75;4927935;28;20214;-71
2022/05/21 11:49:49;;;;;;;0.30;0.30;;;;;;;16.24;67.76;100929.34;4967568;28;20224;-69
2022/05/21 11:52:46;;;;;;;0.80;0.40;;;;;;;15.87;77.13;100916.97;4967265;28;20216;-68
2022/05/21 11:55:17;;;;;;;0.50;0.50;;;;;;;15.61;81.49;100920.69;4963835;28;20210;-69
2022/05/21 11:57:45;;;;;;;0.17;0.17;;;;;;;15.36;87.60;100920.88;4967085;28;20194;-70
2022/05/21 12:00:47;;;;;;;0.37;0.30;;;;;;;15.42;91.45;100924.06;4967186;28;20222;-69
2022/05/21 12:03:17;;;;;;;0.30;0.30;;;;;;;15.37;91.15;100923.41;4966584;28;20240;-68
2022/05/21 12:06:14;;;;;;;0.47;0.43;;;;;;;15.60;94.69;100911.09;4967347;28;20201;-70
2022/05/21 12:08:48;;;;;;;0.37;0.37;;;;;;;15.63;94.07;100903.94;4967058;28;20198;-69
2022/05/21 12:11:40;;;;;;;0.20;0.20;;;;;;;15.45;90.19;100929.22;4967693;28;20211;-70
2022/05/21 12:14:19;;;;;;;0.27;0.27;;;;;;;15.53;92.14;100911.38;4970940;28;20232;-68
2022/05/21 12:16:49;;;;;;;0.30;0.30;;;;;;;15.78;90.03;100897.19;4971264;28;20204;-72